sensor_id;sensor_type;location;lat;lon;timestamp;temperature;humidity
39255;DHT22;24957;51.386;-2.352;2022-08-03T00:01:23;22.20;99.90
39255;DHT22;24957;51.386;-2.352;2022-08-03T00:03:49;22.20;99.90
39255;DHT22;24957;51.386;-2.352;2022-08-03T00:06:14;22.10;99.90
39255;DHT22;24957;51.386;-2.352;2022-08-03T00:08:40;22.00;99.90
39255;DHT22;24957;51.386;-2.352;2022-08-03T00:11:06;22.00;99.90
39255;DHT22;24957;51.386;-2.352;2022-08-03T00:13:31;21.90;99.90
39255;DHT22;24957;51.386;-2.352;2022-08-03T00:15:57;21.90;99.90
39255;DHT22;24957;51.386;-2.352;2022-08-03T00:18:22;22.00;99.90
39255;DHT22;24957;51.386;-2.352;2022-08-03T00:20:48;22.00;99.90
39255;DHT22;24957;51.386;-2.352;2022-08-03T00:23:14;21.90;99.90
39255;DHT22;24957;51.386;-2.352;2022-08-03T00:25:40;21.80;99.90
39255;DHT22;24957;51.386;-2.352;2022-08-03T00:28:05;21.60;99.90
39255;DHT22;24957;51.386;-2.352;2022-08-03T00:30:31;21.70;99.90
39255;DHT22;24957;51.386;-2.352;2022-08-03T00:32:57;21.70;99.90
39255;DHT22;24957;51.386;-2.352;2022-08-03T00:35:23;21.80;99.90
39255;DHT22;24957;51.386;-2.352;2022-08-03T00:37:48;21.70;99.90
39255;DHT22;24957;51.386;-2.352;2022-08-03T00:40:15;21.70;99.90
39255;DHT22;24957;51.386;-2.352;2022-08-03T00:42:54;21.80;99.90
39255;DHT22;24957;51.386;-2.352;2022-08-03T00:45:21;21.70;99.90
39255;DHT22;24957;51.386;-2.352;2022-08-03T00:47:47;21.60;99.90
39255;DHT22;24957;51.386;-2.352;2022-08-03T00:50:13;21.70;99.90
39255;DHT22;24957;51.386;-2.352;2022-08-03T00:52:38;21.70;99.90
39255;DHT22;24957;51.386;-2.352;2022-08-03T00:55:04;21.60;99.90
39255;DHT22;24957;51.386;-2.352;2022-08-03T00:57:30;21.50;99.90
39255;DHT22;24957;51.386;-2.352;2022-08-03T00:59:57;21.60;99.90
39255;DHT22;24957;51.386;-2.352;2022-08-03T01:02:24;21.40;99.90
39255;DHT22;24957;51.386;-2.352;2022-08-03T01:04:50;21.40;99.90
39255;DHT22;24957;51.386;-2.352;2022-08-03T01:12:35;21.50;99.90
39255;DHT22;24957;51.386;-2.352;2022-08-03T01:17:33;21.60;99.90
39255;DHT22;24957;51.386;-2.352;2022-08-03T01:20:02;21.50;99.90
39255;DHT22;24957;51.386;-2.352;2022-08-03T01:25:05;21.60;99.90
39255;DHT22;24957;51.386;-2.352;2022-08-03T01:30:09;21.50;99.90
39255;DHT22;24957;51.386;-2.352;2022-08-03T01:32:41;21.40;99.90
39255;DHT22;24957;51.386;-2.352;2022-08-03T01:35:15;21.50;99.90
39255;DHT22;24957;51.386;-2.352;2022-08-03T01:37:42;21.50;99.90
39255;DHT22;24957;51.386;-2.352;2022-08-03T01:40:09;21.50;99.90
39255;DHT22;24957;51.386;-2.352;2022-08-03T01:42:37;21.60;99.90
39255;DHT22;24957;51.386;-2.352;2022-08-03T01:45:04;21.50;99.90
39255;DHT22;24957;51.386;-2.352;2022-08-03T01:47:30;21.40;99.90
39255;DHT22;24957;51.386;-2.352;2022-08-03T01:49:56;21.20;99.90
39255;DHT22;24957;51.386;-2.352;2022-08-03T01:52:23;21.10;99.90
39255;DHT22;24957;51.386;-2.352;2022-08-03T01:54:50;21.00;99.90
39255;DHT22;24957;51.386;-2.352;2022-08-03T01:57:16;20.90;99.90
39255;DHT22;24957;51.386;-2.352;2022-08-03T01:59:43;21.00;99.90
39255;DHT22;24957;51.386;-2.352;2022-08-03T02:02:12;20.90;99.90
39255;DHT22;24957;51.386;-2.352;2022-08-03T02:04:38;20.90;99.90
39255;DHT22;24957;51.386;-2.352;2022-08-03T02:07:05;21.00;99.90
39255;DHT22;24957;51.386;-2.352;2022-08-03T02:09:31;21.10;99.90
39255;DHT22;24957;51.386;-2.352;2022-08-03T02:11:57;21.10;99.90
39255;DHT22;24957;51.386;-2.352;2022-08-03T02:14:23;21.20;99.90
39255;DHT22;24957;51.386;-2.352;2022-08-03T02:16:49;21.00;99.90
39255;DHT22;24957;51.386;-2.352;2022-08-03T02:19:14;21.10;99.90
39255;DHT22;24957;51.386;-2.352;2022-08-03T02:21:41;21.20;99.90
39255;DHT22;24957;51.386;-2.352;2022-08-03T02:24:08;21.20;99.90
39255;DHT22;24957;51.386;-2.352;2022-08-03T02:26:34;21.30;99.90
39255;DHT22;24957;51.386;-2.352;2022-08-03T02:29:04;21.30;99.90
39255;DHT22;24957;51.386;-2.352;2022-08-03T02:31:32;21.40;99.90
39255;DHT22;24957;51.386;-2.352;2022-08-03T02:34:00;21.40;99.90
39255;DHT22;24957;51.386;-2.352;2022-08-03T02:36:31;21.40;99.90
39255;DHT22;24957;51.386;-2.352;2022-08-03T02:38:59;21.30;99.90
39255;DHT22;24957;51.386;-2.352;2022-08-03T02:44:26;21.30;99.90
39255;DHT22;24957;51.386;-2.352;2022-08-03T02:46:53;21.40;99.90
39255;DHT22;24957;51.386;-2.352;2022-08-03T02:49:19;21.30;99.90
39255;DHT22;24957;51.386;-2.352;2022-08-03T02:51:45;21.40;99.90
39255;DHT22;24957;51.386;-2.352;2022-08-03T02:54:11;21.40;99.90
39255;DHT22;24957;51.386;-2.352;2022-08-03T02:56:39;21.60;99.90
39255;DHT22;24957;51.386;-2.352;2022-08-03T02:59:05;21.60;99.90
39255;DHT22;24957;51.386;-2.352;2022-08-03T03:01:31;21.40;99.90
39255;DHT22;24957;51.386;-2.352;2022-08-03T03:03:57;21.40;99.90
39255;DHT22;24957;51.386;-2.352;2022-08-03T03:06:24;21.40;99.90
39255;DHT22;24957;51.386;-2.352;2022-08-03T03:08:49;21.30;99.90
39255;DHT22;24957;51.386;-2.352;2022-08-03T03:11:16;21.20;99.90
39255;DHT22;24957;51.386;-2.352;2022-08-03T03:13:43;21.20;99.90
39255;DHT22;24957;51.386;-2.352;2022-08-03T03:16:11;21.20;99.90
39255;DHT22;24957;51.386;-2.352;2022-08-03T03:18:37;21.20;99.90
39255;DHT22;24957;51.386;-2.352;2022-08-03T03:21:03;21.20;99.90
39255;DHT22;24957;51.386;-2.352;2022-08-03T03:23:28;21.20;99.90
39255;DHT22;24957;51.386;-2.352;2022-08-03T03:25:55;21.10;99.90
39255;DHT22;24957;51.386;-2.352;2022-08-03T03:28:23;21.20;99.90
39255;DHT22;24957;51.386;-2.352;2022-08-03T03:30:49;21.10;99.90
39255;DHT22;24957;51.386;-2.352;2022-08-03T03:33:15;21.10;99.90
39255;DHT22;24957;51.386;-2.352;2022-08-03T03:35:42;20.90;99.90
39255;DHT22;24957;51.386;-2.352;2022-08-03T03:38:11;20.90;99.90
39255;DHT22;24957;51.386;-2.352;2022-08-03T03:40:37;20.90;99.90
39255;DHT22;24957;51.386;-2.352;2022-08-03T03:43:06;21.00;99.90
39255;DHT22;24957;51.386;-2.352;2022-08-03T03:45:33;21.00;99.90
39255;DHT22;24957;51.386;-2.352;2022-08-03T03:47:59;21.00;99.90
39255;DHT22;24957;51.386;-2.352;2022-08-03T03:50:25;21.10;99.90
39255;DHT22;24957;51.386;-2.352;2022-08-03T03:52:51;21.20;99.90
39255;DHT22;24957;51.386;-2.352;2022-08-03T03:55:17;21.00;99.90
39255;DHT22;24957;51.386;-2.352;2022-08-03T03:57:43;21.10;99.90
39255;DHT22;24957;51.386;-2.352;2022-08-03T04:00:09;21.10;99.90
39255;DHT22;24957;51.386;-2.352;2022-08-03T04:02:35;21.10;99.90
39255;DHT22;24957;51.386;-2.352;2022-08-03T04:05:01;21.10;99.90
39255;DHT22;24957;51.386;-2.352;2022-08-03T04:13:34;21.10;99.90
39255;DHT22;24957;51.386;-2.352;2022-08-03T04:16:00;21.10;99.90
39255;DHT22;24957;51.386;-2.352;2022-08-03T04:18:27;21.10;99.90
39255;DHT22;24957;51.386;-2.352;2022-08-03T04:20:54;21.00;99.90
39255;DHT22;24957;51.386;-2.352;2022-08-03T04:23:21;20.90;99.90
39255;DHT22;24957;51.386;-2.352;2022-08-03T04:25:48;20.70;99.90
39255;DHT22;24957;51.386;-2.352;2022-08-03T04:28:15;20.70;99.90
39255;DHT22;24957;51.386;-2.352;2022-08-03T04:30:42;20.80;99.90
39255;DHT22;24957;51.386;-2.352;2022-08-03T04:33:12;20.90;99.90
39255;DHT22;24957;51.386;-2.352;2022-08-03T04:35:37;20.90;99.90
39255;DHT22;24957;51.386;-2.352;2022-08-03T04:38:05;20.90;99.90
39255;DHT22;24957;51.386;-2.352;2022-08-03T04:40:32;20.90;99.90
39255;DHT22;24957;51.386;-2.352;2022-08-03T04:42:59;20.80;99.90
39255;DHT22;24957;51.386;-2.352;2022-08-03T04:45:26;20.70;99.90
39255;DHT22;24957;51.386;-2.352;2022-08-03T04:47:52;20.70;99.90
39255;DHT22;24957;51.386;-2.352;2022-08-03T04:50:18;20.70;99.90
39255;DHT22;24957;51.386;-2.352;2022-08-03T04:52:44;20.70;99.90
39255;DHT22;24957;51.386;-2.352;2022-08-03T04:55:09;20.80;99.90
39255;DHT22;24957;51.386;-2.352;2022-08-03T04:57:35;20.90;99.90
39255;DHT22;24957;51.386;-2.352;2022-08-03T05:00:01;21.00;99.90
39255;DHT22;24957;51.386;-2.352;2022-08-03T05:02:27;21.20;99.90
39255;DHT22;24957;51.386;-2.352;2022-08-03T05:04:52;21.20;99.90
39255;DHT22;24957;51.386;-2.352;2022-08-03T05:07:18;21.20;99.90
39255;DHT22;24957;51.386;-2.352;2022-08-03T05:09:43;21.30;99.90
39255;DHT22;24957;51.386;-2.352;2022-08-03T05:12:09;21.30;99.90
39255;DHT22;24957;51.386;-2.352;2022-08-03T05:14:36;21.30;99.90
39255;DHT22;24957;51.386;-2.352;2022-08-03T05:17:05;21.30;99.90
39255;DHT22;24957;51.386;-2.352;2022-08-03T05:19:31;21.30;99.90
39255;DHT22;24957;51.386;-2.352;2022-08-03T05:21:57;21.40;99.90
39255;DHT22;24957;51.386;-2.352;2022-08-03T05:24:23;21.50;99.90
39255;DHT22;24957;51.386;-2.352;2022-08-03T05:26:48;21.50;99.90
39255;DHT22;24957;51.386;-2.352;2022-08-03T05:29:14;21.50;99.90
39255;DHT22;24957;51.386;-2.352;2022-08-03T05:31:40;21.40;99.90
39255;DHT22;24957;51.386;-2.352;2022-08-03T05:34:05;21.40;99.90
39255;DHT22;24957;51.386;-2.352;2022-08-03T05:36:31;21.40;99.90
39255;DHT22;24957;51.386;-2.352;2022-08-03T05:38:56;21.50;99.90
39255;DHT22;24957;51.386;-2.352;2022-08-03T05:41:22;21.50;99.90
39255;DHT22;24957;51.386;-2.352;2022-08-03T05:43:48;21.50;99.90
39255;DHT22;24957;51.386;-2.352;2022-08-03T05:46:13;21.50;99.90
39255;DHT22;24957;51.386;-2.352;2022-08-03T05:48:39;21.50;99.90
39255;DHT22;24957;51.386;-2.352;2022-08-03T05:51:05;21.50;99.90
39255;DHT22;24957;51.386;-2.352;2022-08-03T05:53:35;21.60;99.90
39255;DHT22;24957;51.386;-2.352;2022-08-03T05:56:01;21.70;99.90
39255;DHT22;24957;51.386;-2.352;2022-08-03T05:58:26;21.70;99.90
39255;DHT22;24957;51.386;-2.352;2022-08-03T06:00:52;21.50;99.90
39255;DHT22;24957;51.386;-2.352;2022-08-03T06:03:17;21.40;99.90
39255;DHT22;24957;51.386;-2.352;2022-08-03T06:05:44;21.40;99.90
39255;DHT22;24957;51.386;-2.352;2022-08-03T06:08:09;21.60;99.90
39255;DHT22;24957;51.386;-2.352;2022-08-03T06:10:35;21.60;99.90
39255;DHT22;24957;51.386;-2.352;2022-08-03T06:13:01;21.70;99.90
39255;DHT22;24957;51.386;-2.352;2022-08-03T06:15:26;21.60;99.90
39255;DHT22;24957;51.386;-2.352;2022-08-03T06:17:52;21.70;99.90
39255;DHT22;24957;51.386;-2.352;2022-08-03T06:20:18;21.70;99.90
39255;DHT22;24957;51.386;-2.352;2022-08-03T06:22:45;21.70;99.90
39255;DHT22;24957;51.386;-2.352;2022-08-03T06:25:10;21.70;99.90
39255;DHT22;24957;51.386;-2.352;2022-08-03T06:27:36;21.90;99.90
39255;DHT22;24957;51.386;-2.352;2022-08-03T06:30:05;22.00;99.90
39255;DHT22;24957;51.386;-2.352;2022-08-03T06:32:31;21.80;99.90
39255;DHT22;24957;51.386;-2.352;2022-08-03T06:34:58;21.70;99.90
39255;DHT22;24957;51.386;-2.352;2022-08-03T06:37:26;21.80;99.90
39255;DHT22;24957;51.386;-2.352;2022-08-03T06:39:53;21.90;99.90
39255;DHT22;24957;51.386;-2.352;2022-08-03T06:42:18;21.80;99.90
39255;DHT22;24957;51.386;-2.352;2022-08-03T06:44:44;21.60;99.90
39255;DHT22;24957;51.386;-2.352;2022-08-03T06:47:09;21.70;99.90
39255;DHT22;24957;51.386;-2.352;2022-08-03T06:49:35;21.70;99.90
39255;DHT22;24957;51.386;-2.352;2022-08-03T06:52:01;21.70;99.90
39255;DHT22;24957;51.386;-2.352;2022-08-03T06:54:26;21.90;99.90
39255;DHT22;24957;51.386;-2.352;2022-08-03T06:56:52;22.00;99.90
39255;DHT22;24957;51.386;-2.352;2022-08-03T06:59:18;22.10;99.90
39255;DHT22;24957;51.386;-2.352;2022-08-03T07:01:43;22.10;99.90
39255;DHT22;24957;51.386;-2.352;2022-08-03T07:04:09;22.20;99.90
39255;DHT22;24957;51.386;-2.352;2022-08-03T07:06:36;22.10;99.90
39255;DHT22;24957;51.386;-2.352;2022-08-03T07:09:02;22.20;99.90
39255;DHT22;24957;51.386;-2.352;2022-08-03T07:11:27;22.40;99.90
39255;DHT22;24957;51.386;-2.352;2022-08-03T07:13:53;22.70;99.90
39255;DHT22;24957;51.386;-2.352;2022-08-03T07:16:18;22.70;99.90
39255;DHT22;24957;51.386;-2.352;2022-08-03T07:18:44;22.60;99.90
39255;DHT22;24957;51.386;-2.352;2022-08-03T07:21:10;22.60;99.90
39255;DHT22;24957;51.386;-2.352;2022-08-03T07:23:37;22.50;99.90
39255;DHT22;24957;51.386;-2.352;2022-08-03T07:26:02;22.40;99.90
39255;DHT22;24957;51.386;-2.352;2022-08-03T07:28:28;22.20;99.90
39255;DHT22;24957;51.386;-2.352;2022-08-03T07:30:54;22.30;99.90
39255;DHT22;24957;51.386;-2.352;2022-08-03T07:33:22;22.20;99.90
39255;DHT22;24957;51.386;-2.352;2022-08-03T07:35:48;22.30;99.90
39255;DHT22;24957;51.386;-2.352;2022-08-03T07:38:13;22.20;99.90
39255;DHT22;24957;51.386;-2.352;2022-08-03T07:40:39;22.20;99.90
39255;DHT22;24957;51.386;-2.352;2022-08-03T07:43:05;22.00;99.90
39255;DHT22;24957;51.386;-2.352;2022-08-03T07:45:30;21.60;99.90
39255;DHT22;24957;51.386;-2.352;2022-08-03T07:47:56;21.70;99.90
39255;DHT22;24957;51.386;-2.352;2022-08-03T07:50:22;21.90;99.90
39255;DHT22;24957;51.386;-2.352;2022-08-03T07:52:48;22.10;99.90
39255;DHT22;24957;51.386;-2.352;2022-08-03T07:55:14;22.30;99.90
39255;DHT22;24957;51.386;-2.352;2022-08-03T07:57:40;22.60;99.90
39255;DHT22;24957;51.386;-2.352;2022-08-03T08:00:06;22.70;99.90
39255;DHT22;24957;51.386;-2.352;2022-08-03T08:02:35;22.80;99.90
39255;DHT22;24957;51.386;-2.352;2022-08-03T08:05:00;22.90;99.90
39255;DHT22;24957;51.386;-2.352;2022-08-03T08:07:26;22.90;99.90
39255;DHT22;24957;51.386;-2.352;2022-08-03T08:09:52;23.00;99.90
39255;DHT22;24957;51.386;-2.352;2022-08-03T08:12:17;23.10;99.90
39255;DHT22;24957;51.386;-2.352;2022-08-03T08:14:43;23.30;99.90
39255;DHT22;24957;51.386;-2.352;2022-08-03T08:17:12;23.30;99.90
39255;DHT22;24957;51.386;-2.352;2022-08-03T08:19:37;23.40;99.90
39255;DHT22;24957;51.386;-2.352;2022-08-03T08:22:03;23.10;99.90
39255;DHT22;24957;51.386;-2.352;2022-08-03T08:24:28;22.90;99.90
39255;DHT22;24957;51.386;-2.352;2022-08-03T08:26:55;23.00;99.90
39255;DHT22;24957;51.386;-2.352;2022-08-03T08:29:20;23.00;99.90
39255;DHT22;24957;51.386;-2.352;2022-08-03T08:31:47;23.30;99.90
39255;DHT22;24957;51.386;-2.352;2022-08-03T08:34:14;23.40;99.90
39255;DHT22;24957;51.386;-2.352;2022-08-03T08:36:43;23.50;99.90
39255;DHT22;24957;51.386;-2.352;2022-08-03T08:39:08;23.30;99.90
39255;DHT22;24957;51.386;-2.352;2022-08-03T08:41:34;23.30;99.90
39255;DHT22;24957;51.386;-2.352;2022-08-03T08:44:00;23.40;99.90
39255;DHT22;24957;51.386;-2.352;2022-08-03T08:46:25;23.40;99.90
39255;DHT22;24957;51.386;-2.352;2022-08-03T08:48:52;23.60;99.90
39255;DHT22;24957;51.386;-2.352;2022-08-03T08:51:18;23.50;99.90
39255;DHT22;24957;51.386;-2.352;2022-08-03T08:53:44;23.70;99.90
39255;DHT22;24957;51.386;-2.352;2022-08-03T08:56:13;23.70;99.90
39255;DHT22;24957;51.386;-2.352;2022-08-03T08:58:49;24.10;99.90
39255;DHT22;24957;51.386;-2.352;2022-08-03T09:01:18;24.40;99.90
39255;DHT22;24957;51.386;-2.352;2022-08-03T09:03:47;24.40;99.90
39255;DHT22;24957;51.386;-2.352;2022-08-03T09:06:12;24.10;99.90
39255;DHT22;24957;51.386;-2.352;2022-08-03T09:08:39;24.20;99.90
39255;DHT22;24957;51.386;-2.352;2022-08-03T09:11:05;24.50;99.90
39255;DHT22;24957;51.386;-2.352;2022-08-03T09:13:32;24.70;99.90
39255;DHT22;24957;51.386;-2.352;2022-08-03T09:16:08;24.80;99.90
39255;DHT22;24957;51.386;-2.352;2022-08-03T09:18:34;24.80;99.90
39255;DHT22;24957;51.386;-2.352;2022-08-03T09:24:00;24.60;99.90
39255;DHT22;24957;51.386;-2.352;2022-08-03T09:26:29;24.20;99.90
39255;DHT22;24957;51.386;-2.352;2022-08-03T09:29:02;24.30;99.90
39255;DHT22;24957;51.386;-2.352;2022-08-03T09:31:31;24.20;99.90
39255;DHT22;24957;51.386;-2.352;2022-08-03T09:33:59;24.40;99.90
39255;DHT22;24957;51.386;-2.352;2022-08-03T09:36:35;24.40;99.90
39255;DHT22;24957;51.386;-2.352;2022-08-03T09:39:02;24.30;99.90
39255;DHT22;24957;51.386;-2.352;2022-08-03T09:41:31;23.90;99.90
39255;DHT22;24957;51.386;-2.352;2022-08-03T09:43:56;23.20;99.90
39255;DHT22;24957;51.386;-2.352;2022-08-03T09:46:25;22.30;99.90
39255;DHT22;24957;51.386;-2.352;2022-08-03T09:48:52;21.60;99.90
39255;DHT22;24957;51.386;-2.352;2022-08-03T09:51:23;21.20;99.90
39255;DHT22;24957;51.386;-2.352;2022-08-03T09:53:49;21.00;99.90
39255;DHT22;24957;51.386;-2.352;2022-08-03T09:56:14;20.90;99.90
39255;DHT22;24957;51.386;-2.352;2022-08-03T09:58:46;20.80;99.90
39255;DHT22;24957;51.386;-2.352;2022-08-03T10:01:12;20.90;99.90
39255;DHT22;24957;51.386;-2.352;2022-08-03T10:03:38;21.10;99.90
39255;DHT22;24957;51.386;-2.352;2022-08-03T10:06:17;21.10;99.90
39255;DHT22;24957;51.386;-2.352;2022-08-03T10:09:03;21.40;99.90
39255;DHT22;24957;51.386;-2.352;2022-08-03T10:11:30;21.70;99.90
39255;DHT22;24957;51.386;-2.352;2022-08-03T10:13:56;21.90;99.90
39255;DHT22;24957;51.386;-2.352;2022-08-03T10:16:22;21.90;99.90
39255;DHT22;24957;51.386;-2.352;2022-08-03T10:18:48;21.80;99.90
39255;DHT22;24957;51.386;-2.352;2022-08-03T10:21:15;21.80;99.90
39255;DHT22;24957;51.386;-2.352;2022-08-03T10:23:41;21.90;99.90
39255;DHT22;24957;51.386;-2.352;2022-08-03T10:26:07;21.90;99.90
39255;DHT22;24957;51.386;-2.352;2022-08-03T10:28:36;22.00;99.90
39255;DHT22;24957;51.386;-2.352;2022-08-03T10:31:04;21.80;99.90
39255;DHT22;24957;51.386;-2.352;2022-08-03T10:33:33;21.40;99.90
39255;DHT22;24957;51.386;-2.352;2022-08-03T10:35:59;21.20;99.90
39255;DHT22;24957;51.386;-2.352;2022-08-03T10:38:31;21.10;99.90
39255;DHT22;24957;51.386;-2.352;2022-08-03T10:41:00;21.10;99.90
39255;DHT22;24957;51.386;-2.352;2022-08-03T10:43:27;21.20;99.90
39255;DHT22;24957;51.386;-2.352;2022-08-03T10:45:55;21.00;99.90
39255;DHT22;24957;51.386;-2.352;2022-08-03T10:48:21;21.20;99.90
39255;DHT22;24957;51.386;-2.352;2022-08-03T10:50:47;21.40;99.90
39255;DHT22;24957;51.386;-2.352;2022-08-03T10:53:13;21.60;99.90
39255;DHT22;24957;51.386;-2.352;2022-08-03T10:55:43;21.80;99.90
39255;DHT22;24957;51.386;-2.352;2022-08-03T11:01:03;21.90;99.90
39255;DHT22;24957;51.386;-2.352;2022-08-03T11:03:29;21.90;99.90
39255;DHT22;24957;51.386;-2.352;2022-08-03T11:06:13;21.90;99.90
39255;DHT22;24957;51.386;-2.352;2022-08-03T11:08:41;21.90;99.90
39255;DHT22;24957;51.386;-2.352;2022-08-03T11:16:22;21.80;99.90
39255;DHT22;24957;51.386;-2.352;2022-08-03T11:18:58;21.70;99.90
39255;DHT22;24957;51.386;-2.352;2022-08-03T11:21:57;21.50;99.90
39255;DHT22;24957;51.386;-2.352;2022-08-03T11:43:05;21.00;99.90
39255;DHT22;24957;51.386;-2.352;2022-08-03T11:45:31;21.20;99.90
39255;DHT22;24957;51.386;-2.352;2022-08-03T11:47:57;21.10;99.90
39255;DHT22;24957;51.386;-2.352;2022-08-03T11:50:24;21.10;99.90
39255;DHT22;24957;51.386;-2.352;2022-08-03T11:52:50;21.10;99.90
39255;DHT22;24957;51.386;-2.352;2022-08-03T11:55:16;21.20;99.90
39255;DHT22;24957;51.386;-2.352;2022-08-03T11:57:43;21.50;99.90
39255;DHT22;24957;51.386;-2.352;2022-08-03T12:00:43;21.80;99.90
39255;DHT22;24957;51.386;-2.352;2022-08-03T12:03:03;21.90;99.90
39255;DHT22;24957;51.386;-2.352;2022-08-03T12:05:36;22.00;99.90
39255;DHT22;24957;51.386;-2.352;2022-08-03T12:08:02;22.30;99.90
39255;DHT22;24957;51.386;-2.352;2022-08-03T12:10:28;22.30;99.90
39255;DHT22;24957;51.386;-2.352;2022-08-03T12:12:58;22.20;99.90
39255;DHT22;24957;51.386;-2.352;2022-08-03T12:15:27;22.10;99.90
39255;DHT22;24957;51.386;-2.352;2022-08-03T12:17:53;22.00;99.90
39255;DHT22;24957;51.386;-2.352;2022-08-03T12:20:21;22.10;99.90
39255;DHT22;24957;51.386;-2.352;2022-08-03T12:22:49;22.00;99.90
39255;DHT22;24957;51.386;-2.352;2022-08-03T12:25:22;22.00;99.90
39255;DHT22;24957;51.386;-2.352;2022-08-03T12:27:48;22.20;99.90
39255;DHT22;24957;51.386;-2.352;2022-08-03T12:30:14;22.60;99.90
39255;DHT22;24957;51.386;-2.352;2022-08-03T12:32:41;22.70;99.90
39255;DHT22;24957;51.386;-2.352;2022-08-03T12:35:07;22.60;99.90
39255;DHT22;24957;51.386;-2.352;2022-08-03T12:37:32;22.80;99.90
39255;DHT22;24957;51.386;-2.352;2022-08-03T12:39:59;22.70;99.90
39255;DHT22;24957;51.386;-2.352;2022-08-03T12:42:33;22.80;99.90
39255;DHT22;24957;51.386;-2.352;2022-08-03T12:44:59;23.00;99.90
39255;DHT22;24957;51.386;-2.352;2022-08-03T12:47:25;23.00;99.90
39255;DHT22;24957;51.386;-2.352;2022-08-03T12:49:51;23.10;99.90
39255;DHT22;24957;51.386;-2.352;2022-08-03T12:52:17;23.10;99.90
39255;DHT22;24957;51.386;-2.352;2022-08-03T12:54:56;23.10;99.90
39255;DHT22;24957;51.386;-2.352;2022-08-03T12:57:21;23.20;99.90
39255;DHT22;24957;51.386;-2.352;2022-08-03T12:59:47;23.30;99.90
39255;DHT22;24957;51.386;-2.352;2022-08-03T13:02:13;23.30;99.90
39255;DHT22;24957;51.386;-2.352;2022-08-03T13:04:40;23.40;99.90
39255;DHT22;24957;51.386;-2.352;2022-08-03T13:07:06;23.40;99.90
39255;DHT22;24957;51.386;-2.352;2022-08-03T13:10:05;23.40;99.90
39255;DHT22;24957;51.386;-2.352;2022-08-03T13:12:25;23.40;99.90
39255;DHT22;24957;51.386;-2.352;2022-08-03T13:14:54;23.50;99.90
39255;DHT22;24957;51.386;-2.352;2022-08-03T13:17:20;23.40;99.90
39255;DHT22;24957;51.386;-2.352;2022-08-03T13:19:46;22.90;99.90
39255;DHT22;24957;51.386;-2.352;2022-08-03T13:24:37;22.40;99.90
39255;DHT22;24957;51.386;-2.352;2022-08-03T13:27:03;22.90;99.90
39255;DHT22;24957;51.386;-2.352;2022-08-03T13:29:30;23.40;99.90
39255;DHT22;24957;51.386;-2.352;2022-08-03T13:32:00;23.80;99.90
39255;DHT22;24957;51.386;-2.352;2022-08-03T13:34:25;24.20;99.90
39255;DHT22;24957;51.386;-2.352;2022-08-03T13:36:51;24.20;99.90
39255;DHT22;24957;51.386;-2.352;2022-08-03T13:39:17;24.20;99.90
39255;DHT22;24957;51.386;-2.352;2022-08-03T13:41:44;24.60;99.90
39255;DHT22;24957;51.386;-2.352;2022-08-03T13:44:10;24.60;95.30
39255;DHT22;24957;51.386;-2.352;2022-08-03T13:46:35;24.60;95.60
39255;DHT22;24957;51.386;-2.352;2022-08-03T13:49:01;25.00;93.30
39255;DHT22;24957;51.386;-2.352;2022-08-03T13:51:26;25.20;90.50
39255;DHT22;24957;51.386;-2.352;2022-08-03T13:53:52;25.00;90.40
39255;DHT22;24957;51.386;-2.352;2022-08-03T13:56:18;24.80;90.60
39255;DHT22;24957;51.386;-2.352;2022-08-03T13:58:43;24.50;90.60
39255;DHT22;24957;51.386;-2.352;2022-08-03T14:01:09;24.60;90.60
39255;DHT22;24957;51.386;-2.352;2022-08-03T14:03:35;24.50;89.90
39255;DHT22;24957;51.386;-2.352;2022-08-03T14:06:01;24.40;90.30
39255;DHT22;24957;51.386;-2.352;2022-08-03T14:08:27;24.50;90.10
39255;DHT22;24957;51.386;-2.352;2022-08-03T14:10:52;24.60;92.40
39255;DHT22;24957;51.386;-2.352;2022-08-03T14:13:18;24.70;88.80
39255;DHT22;24957;51.386;-2.352;2022-08-03T14:15:44;24.70;88.70
39255;DHT22;24957;51.386;-2.352;2022-08-03T14:18:10;24.90;88.50
39255;DHT22;24957;51.386;-2.352;2022-08-03T14:20:36;25.10;87.60
39255;DHT22;24957;51.386;-2.352;2022-08-03T14:23:01;25.10;85.10
39255;DHT22;24957;51.386;-2.352;2022-08-03T14:25:27;24.90;84.90
39255;DHT22;24957;51.386;-2.352;2022-08-03T14:27:52;24.90;85.80
39255;DHT22;24957;51.386;-2.352;2022-08-03T14:30:18;24.90;84.90
39255;DHT22;24957;51.386;-2.352;2022-08-03T14:32:44;24.80;83.90
39255;DHT22;24957;51.386;-2.352;2022-08-03T14:35:10;24.80;84.60
39255;DHT22;24957;51.386;-2.352;2022-08-03T14:37:36;24.90;84.20
39255;DHT22;24957;51.386;-2.352;2022-08-03T14:40:02;24.80;83.00
39255;DHT22;24957;51.386;-2.352;2022-08-03T14:42:28;24.80;83.70
39255;DHT22;24957;51.386;-2.352;2022-08-03T14:44:53;24.50;83.20
39255;DHT22;24957;51.386;-2.352;2022-08-03T14:47:19;24.30;84.90
39255;DHT22;24957;51.386;-2.352;2022-08-03T14:49:44;24.40;86.00
39255;DHT22;24957;51.386;-2.352;2022-08-03T14:52:10;24.50;83.20
39255;DHT22;24957;51.386;-2.352;2022-08-03T14:54:35;24.70;85.00
39255;DHT22;24957;51.386;-2.352;2022-08-03T14:57:01;24.80;85.10
39255;DHT22;24957;51.386;-2.352;2022-08-03T14:59:26;24.80;85.40
39255;DHT22;24957;51.386;-2.352;2022-08-03T15:01:52;25.00;84.00
39255;DHT22;24957;51.386;-2.352;2022-08-03T15:04:18;24.90;86.30
39255;DHT22;24957;51.386;-2.352;2022-08-03T15:06:44;24.70;84.40
39255;DHT22;24957;51.386;-2.352;2022-08-03T15:09:09;24.20;87.80
39255;DHT22;24957;51.386;-2.352;2022-08-03T15:11:35;24.90;84.90
39255;DHT22;24957;51.386;-2.352;2022-08-03T15:14:01;26.20;81.00
39255;DHT22;24957;51.386;-2.352;2022-08-03T15:16:27;26.90;76.70
39255;DHT22;24957;51.386;-2.352;2022-08-03T15:18:52;26.90;76.20
39255;DHT22;24957;51.386;-2.352;2022-08-03T15:21:18;27.20;72.80
39255;DHT22;24957;51.386;-2.352;2022-08-03T15:23:43;27.40;71.40
39255;DHT22;24957;51.386;-2.352;2022-08-03T15:26:09;27.90;69.40
39255;DHT22;24957;51.386;-2.352;2022-08-03T15:28:35;28.60;67.00
39255;DHT22;24957;51.386;-2.352;2022-08-03T15:31:00;29.40;65.60
39255;DHT22;24957;51.386;-2.352;2022-08-03T15:33:26;29.50;65.20
39255;DHT22;24957;51.386;-2.352;2022-08-03T15:35:52;29.40;63.50
39255;DHT22;24957;51.386;-2.352;2022-08-03T15:38:17;29.30;66.80
39255;DHT22;24957;51.386;-2.352;2022-08-03T15:40:43;29.40;64.70
39255;DHT22;24957;51.386;-2.352;2022-08-03T15:43:09;29.10;62.40
39255;DHT22;24957;51.386;-2.352;2022-08-03T15:45:35;28.70;62.20
39255;DHT22;24957;51.386;-2.352;2022-08-03T15:48:00;28.90;62.60
39255;DHT22;24957;51.386;-2.352;2022-08-03T15:50:26;29.30;61.60
39255;DHT22;24957;51.386;-2.352;2022-08-03T15:52:51;29.00;60.60
39255;DHT22;24957;51.386;-2.352;2022-08-03T15:55:17;28.90;61.90
39255;DHT22;24957;51.386;-2.352;2022-08-03T15:57:43;28.70;61.10
39255;DHT22;24957;51.386;-2.352;2022-08-03T16:00:09;28.30;62.40
39255;DHT22;24957;51.386;-2.352;2022-08-03T16:02:35;27.90;64.20
39255;DHT22;24957;51.386;-2.352;2022-08-03T16:05:00;27.80;63.90
39255;DHT22;24957;51.386;-2.352;2022-08-03T16:07:26;27.50;64.30